Time;durP1;ratioP1;P1;durP2;ratioP2;P2;SDS_P1;SDS_P2;PMS_P1;PMS_P2;Temp;Humidity;BMP_temperature;BMP_pressure;BME280_temperature;BME280_humidity;BME280_pressure;Samples;Min_cycle;Max_cycle;Signal;HPM_P1;HPM_P2
2022/03/23 00:01:03;;;;;;;7.75;3.42;;;;;;;1.31;54.19;91834.59;5011726;28;20022;-65
2022/03/23 00:03:29;;;;;;;9.18;3.47;;;;;;;1.22;55.07;91816.81;5011887;28;20030;-65
2022/03/23 00:05:54;;;;;;;9.77;3.53;;;;;;;1.19;54.78;91820.69;5011518;28;20057;-65
2022/03/23 00:08:21;;;;;;;5.65;2.90;;;;;;;1.20;54.39;91824.91;5011703;28;20583;-65
2022/03/23 00:10:48;;;;;;;16.63;4.60;;;;;;;1.27;54.15;91822.97;5011544;28;20037;-65
2022/03/23 00:13:14;;;;;;;11.57;4.30;;;;;;;1.18;54.51;91822.53;5011189;28;20112;-65
2022/03/23 00:15:40;;;;;;;10.98;3.83;;;;;;;1.08;55.01;91824.13;5011529;28;20104;-65
2022/03/23 00:18:06;;;;;;;8.38;3.55;;;;;;;0.93;55.41;91818.53;5011603;28;20033;-65
2022/03/23 00:20:32;;;;;;;9.07;3.35;;;;;;;0.79;56.28;91817.97;5011420;28;20030;-65
2022/03/23 00:22:58;;;;;;;11.95;3.80;;;;;;;0.65;57.41;91814.81;5010086;28;20032;-66
2022/03/23 00:25:23;;;;;;;10.45;3.53;;;;;;;0.46;56.74;91802.81;5011436;28;20088;-66
2022/03/23 00:27:49;;;;;;;10.45;4.45;;;;;;;0.59;57.04;91807.84;5011465;28;20025;-66
2022/03/23 00:30:15;;;;;;;10.45;4.15;;;;;;;0.64;55.54;91797.50;5011268;28;20543;-66
2022/03/23 00:32:40;;;;;;;12.82;3.47;;;;;;;0.71;55.53;91802.63;5011242;28;20108;-66
2022/03/23 00:35:06;;;;;;;11.18;3.60;;;;;;;0.72;55.30;91796.34;5011330;28;20061;-66
2022/03/23 00:37:31;;;;;;;8.82;3.47;;;;;;;0.61;55.24;91795.31;5011277;28;20029;-66
2022/03/23 00:39:57;;;;;;;9.90;3.58;;;;;;;0.58;55.41;91793.16;5011313;28;20073;-66
2022/03/23 00:42:22;;;;;;;9.65;3.40;;;;;;;0.49;56.17;91790.09;5011137;28;20033;-66
2022/03/23 00:44:48;;;;;;;7.57;3.58;;;;;;;0.21;57.01;91793.34;5011181;28;20514;-66
2022/03/23 00:47:14;;;;;;;9.02;3.92;;;;;;;-0.05;60.49;91791.91;5011443;28;20029;-66
2022/03/23 00:49:40;;;;;;;11.00;3.47;;;;;;;-0.11;61.37;91790.19;5011553;28;20034;-66
2022/03/23 00:52:06;;;;;;;6.10;3.45;;;;;;;-0.20;59.77;91788.09;5011153;28;20119;-66
2022/03/23 00:54:35;;;;;;;6.70;3.50;;;;;;;-0.28;63.64;91793.66;5011055;28;20030;-66
2022/03/23 00:57:02;;;;;;;10.90;4.00;;;;;;;-0.49;66.86;91793.09;5011407;28;20026;-66
2022/03/23 00:59:27;;;;;;;11.93;4.57;;;;;;;-0.75;69.35;91790.84;5011053;28;20508;-66
2022/03/23 01:01:53;;;;;;;13.15;4.55;;;;;;;-0.86;71.65;91783.72;5011053;28;20077;-65
2022/03/23 01:04:20;;;;;;;13.90;5.03;;;;;;;-1.00;74.39;91789.09;5010697;28;20492;-66
2022/03/23 01:06:46;;;;;;;7.20;4.00;;;;;;;-1.11;73.40;91789.81;5010982;28;20036;-66
2022/03/23 01:09:12;;;;;;;11.23;4.47;;;;;;;-1.15;73.68;91801.69;5010963;28;20040;-66
2022/03/23 01:11:39;;;;;;;11.25;5.53;;;;;;;-1.26;74.77;91792.00;5011000;28;20041;-66
2022/03/23 01:14:06;;;;;;;10.18;5.45;;;;;;;-1.13;70.10;91794.44;5010832;28;20037;-66
2022/03/23 01:16:32;;;;;;;12.60;4.93;;;;;;;-0.93;66.56;91792.44;5010925;28;20459;-66
2022/03/23 01:18:57;;;;;;;13.88;5.07;;;;;;;-0.99;69.33;91790.69;5010957;28;20038;-66
2022/03/23 01:21:22;;;;;;;11.27;5.05;;;;;;;-0.98;67.61;91789.66;5010894;28;20030;-66
2022/03/23 01:23:48;;;;;;;9.55;4.72;;;;;;;-1.11;68.82;91781.16;5013072;28;20156;-66
2022/03/23 01:26:14;;;;;;;9.57;3.70;;;;;;;-1.06;69.70;91789.97;5014590;28;20381;-66
2022/03/23 01:28:39;;;;;;;10.93;4.00;;;;;;;-1.02;67.67;91793.72;5014733;28;20121;-66
2022/03/23 01:31:05;;;;;;;8.25;3.83;;;;;;;-1.00;67.39;91789.09;5014531;28;20073;-66
2022/03/23 01:33:32;;;;;;;10.70;4.60;;;;;;;-1.06;67.69;91789.19;5012893;28;20411;-66
2022/03/23 01:35:57;;;;;;;20.80;5.13;;;;;;;-1.06;69.65;91792.59;5014427;28;20505;-66
2022/03/23 01:38:22;;;;;;;10.38;4.25;;;;;;;-1.30;72.68;91796.03;5014383;28;20022;-66
2022/03/23 01:40:48;;;;;;;7.22;4.00;;;;;;;-1.36;76.03;91791.69;5014387;28;20487;-66
2022/03/23 01:43:14;;;;;;;10.23;4.40;;;;;;;-1.33;73.44;91792.03;5014273;28;20798;-66
2022/03/23 01:45:39;;;;;;;11.80;4.05;;;;;;;-1.30;74.05;91798.63;5013006;28;20112;-66
2022/03/23 01:48:04;;;;;;;15.68;5.60;;;;;;;-1.19;73.06;91791.91;5014284;28;20484;-66
2022/03/23 01:50:30;;;;;;;22.92;6.15;;;;;;;-1.20;75.49;91791.13;5014192;28;20033;-66
2022/03/23 01:52:55;;;;;;;21.27;6.30;;;;;;;-1.28;76.42;91791.38;5013930;28;20038;-66
2022/03/23 01:55:21;;;;;;;32.10;7.85;;;;;;;-1.41;77.59;91794.16;5014095;28;20029;-66
2022/03/23 01:57:51;;;;;;;30.30;7.32;;;;;;;-1.48;77.78;91794.19;5014096;28;20513;-66
2022/03/23 02:00:17;;;;;;;23.45;6.95;;;;;;;-1.57;78.16;91785.06;5013963;28;20025;-66
2022/03/23 02:02:44;;;;;;;25.70;7.90;;;;;;;-1.57;78.79;91785.84;5013872;28;20034;-66
2022/03/23 02:05:11;;;;;;;23.98;6.30;;;;;;;-1.61;79.13;91792.50;5013700;28;20507;-66
2022/03/23 02:07:37;;;;;;;17.00;5.82;;;;;;;-1.66;80.40;91787.13;5013893;28;20115;-66
2022/03/23 02:10:04;;;;;;;29.08;11.27;;;;;;;-1.58;81.01;91778.22;5013812;28;20112;-66
2022/03/23 02:12:30;;;;;;;30.90;12.45;;;;;;;-1.60;82.19;91788.88;5013681;28;20496;-65
2022/03/23 02:14:58;;;;;;;27.83;11.90;;;;;;;-1.71;82.80;91773.94;5013696;28;20112;-65
2022/03/23 02:17:27;;;;;;;23.23;11.15;;;;;;;-1.82;83.68;91772.81;5013890;28;20538;-65
2022/03/23 02:19:52;;;;;;;23.33;10.57;;;;;;;-1.88;84.70;91785.91;5013654;28;20033;-65
2022/03/23 02:22:18;;;;;;;16.08;8.60;;;;;;;-1.98;86.72;91778.56;5013424;28;20046;-65
2022/03/23 02:24:46;;;;;;;14.48;8.50;;;;;;;-2.11;86.50;91766.41;5013791;28;20040;-65
2022/03/23 02:27:13;;;;;;;14.07;6.35;;;;;;;-2.23;84.95;91754.28;5013508;28;20026;-65
2022/03/23 02:29:39;;;;;;;14.50;6.30;;;;;;;-2.12;85.44;91782.28;5013431;28;20030;-65
2022/03/23 02:32:05;;;;;;;14.45;6.30;;;;;;;-2.17;85.98;91775.09;5013314;28;20116;-66
2022/03/23 02:34:31;;;;;;;19.85;6.50;;;;;;;-2.20;85.90;91778.13;5012634;28;20114;-65
2022/03/23 02:37:00;;;;;;;15.20;5.78;;;;;;;-2.29;86.19;91765.56;5011562;28;20026;-65
2022/03/23 02:39:26;;;;;;;11.15;4.72;;;;;;;-2.34;86.74;91779.22;5011933;28;20105;-66
2022/03/23 02:41:56;;;;;;;7.05;3.78;;;;;;;-2.38;86.20;91778.03;5013515;28;20377;-65
2022/03/23 02:44:23;;;;;;;7.65;3.55;;;;;;;-2.33;86.93;91780.81;5013016;28;20068;-65
2022/03/23 02:46:48;;;;;;;9.25;3.80;;;;;;;-2.44;87.39;91784.09;5011888;28;20419;-65
2022/03/23 02:49:19;;;;;;;10.38;4.55;;;;;;;-2.52;88.79;91781.75;5013119;28;20034;-65
2022/03/23 02:51:44;;;;;;;18.20;4.95;;;;;;;-2.46;88.05;91784.28;5013391;28;20057;-64
2022/03/23 03:03:22;;;;;;;10.90;4.05;;;;;;;-2.50;86.56;91782.31;5001000;28;20112;-65
2022/03/23 03:05:47;;;;;;;7.47;3.38;;;;;;;-2.51;87.21;91778.13;5011449;28;20479;-65
2022/03/23 03:10:57;;;;;;;6.38;3.13;;;;;;;-2.47;86.47;91774.09;5143986;23;20069;-67
2022/03/23 03:13:22;;;;;;;6.75;3.47;;;;;;;-2.50;86.58;91780.53;5012586;28;20049;-66
2022/03/23 03:15:47;;;;;;;9.77;3.47;;;;;;;-2.46;89.41;91780.91;5012617;28;20030;-67
2022/03/23 03:18:13;;;;;;;9.38;4.70;;;;;;;-2.49;88.99;91773.50;5012592;28;20096;-66
2022/03/23 03:20:38;;;;;;;18.77;5.43;;;;;;;-2.55;89.06;91782.94;5012461;28;20030;-67
2022/03/23 03:23:03;;;;;;;17.98;8.07;;;;;;;-2.56;89.59;91785.75;5012450;28;20038;-67
2022/03/23 03:25:29;;;;;;;23.20;9.35;;;;;;;-2.50;89.46;91782.31;4995099;28;20037;-67
2022/03/23 03:27:54;;;;;;;18.42;8.63;;;;;;;-2.46;89.35;91778.28;5012349;28;20034;-66
2022/03/23 03:30:20;;;;;;;20.60;8.88;;;;;;;-2.47;89.03;91784.50;5012262;28;20026;-66
2022/03/23 03:32:45;;;;;;;21.27;9.00;;;;;;;-2.48;90.23;91780.31;5012270;28;20043;-66
2022/03/23 03:35:12;;;;;;;26.88;9.85;;;;;;;-2.54;91.30;91783.72;5012228;28;20124;-66
2022/03/23 03:37:39;;;;;;;20.17;8.95;;;;;;;-2.67;92.28;91776.00;5012193;28;20418;-66
2022/03/23 03:40:05;;;;;;;16.23;8.57;;;;;;;-2.70;95.52;91779.81;5012045;28;20359;-66
2022/03/23 03:42:31;;;;;;;20.98;8.40;;;;;;;-2.83;98.54;91779.88;5012025;28;20034;-66
2022/03/23 03:44:57;;;;;;;48.63;9.57;;;;;;;-2.88;100.00;91783.09;5012086;28;20026;-66
2022/03/23 03:47:23;;;;;;;9.35;5.63;;;;;;;-2.91;100.00;91774.91;5011159;28;20415;-66
2022/03/23 03:49:49;;;;;;;14.70;5.72;;;;;;;-2.82;98.36;91777.06;5011865;28;20026;-66
2022/03/23 03:52:14;;;;;;;16.05;6.60;;;;;;;-2.67;94.72;91778.63;5011862;28;20034;-67
2022/03/23 03:54:40;;;;;;;21.08;7.35;;;;;;;-2.74;93.47;91771.63;5011864;28;20476;-67
2022/03/23 03:57:05;;;;;;;26.02;6.93;;;;;;;-2.73;93.63;91786.22;5011879;28;20034;-67
2022/03/23 03:59:30;;;;;;;9.68;3.97;;;;;;;-2.81;95.66;91775.28;5011813;28;20410;-67
2022/03/23 04:01:56;;;;;;;11.50;3.70;;;;;;;-2.93;95.66;91780.31;5011661;28;20492;-67
2022/03/23 04:04:22;;;;;;;5.47;2.65;;;;;;;-3.02;96.27;91790.16;5011823;28;20025;-67
2022/03/23 04:06:47;;;;;;;11.70;3.50;;;;;;;-3.13;96.61;91788.22;5011735;28;20385;-66
2022/03/23 04:09:13;;;;;;;8.75;3.50;;;;;;;-3.14;96.44;91798.81;5011659;28;20038;-66
2022/03/23 04:11:39;;;;;;;12.48;4.75;;;;;;;-3.05;99.34;91787.16;5011443;28;20448;-66
2022/03/23 04:14:05;;;;;;;21.40;9.55;;;;;;;-3.15;97.33;91786.81;5011722;28;20033;-66
2022/03/23 04:16:30;;;;;;;24.85;9.77;;;;;;;-3.17;97.93;91787.00;5011592;28;20481;-66
2022/03/23 04:18:56;;;;;;;23.23;10.85;;;;;;;-3.20;100.00;91791.81;5011807;28;20025;-66
2022/03/23 04:21:22;;;;;;;29.00;12.35;;;;;;;-3.27;100.00;91799.66;5011461;28;20510;-67
2022/03/23 04:23:47;;;;;;;30.42;12.00;;;;;;;-3.42;100.00;91791.28;5011475;28;20407;-67
2022/03/23 04:26:13;;;;;;;28.98;13.23;;;;;;;-3.44;100.00;91799.28;5011447;28;20502;-66
2022/03/23 04:28:39;;;;;;;25.90;12.88;;;;;;;-3.44;100.00;91783.69;5011450;28;20033;-67
2022/03/23 04:31:06;;;;;;;29.90;12.80;;;;;;;-3.46;100.00;91792.72;5011202;28;20041;-67
2022/03/23 04:33:31;;;;;;;24.85;12.30;;;;;;;-3.42;100.00;91799.88;5011323;28;20045;-67
2022/03/23 04:35:57;;;;;;;27.30;10.90;;;;;;;-3.40;100.00;91799.69;5011334;28;20233;-67
2022/03/23 04:38:22;;;;;;;26.10;13.25;;;;;;;-3.38;100.00;91797.66;5011358;28;20027;-67
2022/03/23 04:40:48;;;;;;;42.58;19.02;;;;;;;-3.28;100.00;91803.25;5011087;28;20491;-67
2022/03/23 04:43:14;;;;;;;70.82;16.48;;;;;;;-3.25;100.00;91810.66;5011287;28;20415;-67
2022/03/23 04:45:40;;;;;;;37.28;15.95;;;;;;;-3.26;100.00;91803.06;5011198;28;20038;-67
2022/03/23 04:48:05;;;;;;;29.17;13.43;;;;;;;-3.23;100.00;91800.03;5011511;28;20026;-67
2022/03/23 04:50:31;;;;;;;59.42;26.80;;;;;;;-3.25;100.00;91787.25;5011107;28;20058;-67
2022/03/23 04:52:57;;;;;;;35.97;17.38;;;;;;;-2.84;100.00;91805.13;4993540;28;20026;-67
2022/03/23 04:55:22;;;;;;;37.90;15.57;;;;;;;-2.83;100.00;91793.72;4993438;28;20164;-67
2022/03/23 04:57:48;;;;;;;39.97;16.45;;;;;;;-2.78;99.58;91801.69;4994205;28;20030;-67
2022/03/23 05:00:16;;;;;;;33.35;15.23;;;;;;;-2.72;98.09;91803.44;5014971;28;20124;-67
2022/03/23 05:02:42;;;;;;;30.10;13.32;;;;;;;-2.57;96.39;91802.38;5015274;28;20034;-67
2022/03/23 05:05:10;;;;;;;33.92;13.27;;;;;;;-2.46;96.48;91807.75;5014880;28;20030;-67
2022/03/23 05:07:35;;;;;;;31.15;14.23;;;;;;;-2.38;95.01;91811.91;5014974;28;20538;-67
2022/03/23 05:10:02;;;;;;;30.80;12.05;;;;;;;-2.28;92.76;91807.03;5014678;28;20030;-67
2022/03/23 05:12:28;;;;;;;50.17;14.00;;;;;;;-0.88;87.77;91809.25;5014863;28;20414;-67
2022/03/23 05:14:53;;;;;;;54.65;23.10;;;;;;;2.27;72.35;91811.22;5014774;28;20034;-67
2022/03/23 05:17:19;;;;;;;35.40;16.75;;;;;;;4.12;59.03;91811.69;5014765;28;20034;-67
2022/03/23 05:19:45;;;;;;;30.38;10.80;;;;;;;5.23;55.21;91816.34;5014656;28;20466;-68
2022/03/23 05:22:11;;;;;;;25.95;8.57;;;;;;;6.59;50.39;91820.59;5014758;28;20032;-68
2022/03/23 05:24:37;;;;;;;32.85;11.93;;;;;;;6.77;49.71;91814.81;5014856;28;20033;-68
2022/03/23 05:27:03;;;;;;;23.55;11.88;;;;;;;8.28;47.37;91814.00;5014665;28;20487;-68
2022/03/23 05:29:29;;;;;;;44.53;13.38;;;;;;;10.16;43.59;91813.31;5014491;28;20025;-68
2022/03/23 05:31:54;;;;;;;57.38;15.38;;;;;;;10.63;41.73;91803.69;5014742;28;20037;-68
2022/03/23 05:34:20;;;;;;;38.60;17.92;;;;;;;11.56;39.24;91807.34;5014317;28;20384;-68
2022/03/23 05:36:45;;;;;;;41.72;17.17;;;;;;;10.77;40.33;91809.09;5014354;28;20026;-68
2022/03/23 05:39:12;;;;;;;45.25;20.75;;;;;;;10.63;40.15;91819.66;5014297;28;20034;-68
2022/03/23 05:41:38;;;;;;;46.10;20.95;;;;;;;10.21;39.84;91815.13;5014210;28;20026;-68
2022/03/23 05:44:04;;;;;;;59.08;23.13;;;;;;;10.29;40.90;91811.06;5014240;28;20029;-68
2022/03/23 05:46:30;;;;;;;78.22;34.70;;;;;;;12.41;37.88;91815.94;5014272;28;20112;-68
2022/03/23 05:48:56;;;;;;;74.88;37.78;;;;;;;14.01;34.84;91819.00;5014069;28;20499;-68
2022/03/23 05:51:21;;;;;;;66.43;32.35;;;;;;;14.76;33.48;91818.06;5014001;28;20034;-68
2022/03/23 05:53:47;;;;;;;84.28;35.03;;;;;;;15.03;33.07;91808.97;5013862;28;20407;-68
2022/03/23 05:56:12;;;;;;;91.85;37.05;;;;;;;15.04;33.54;91818.59;5014032;28;20029;-68
2022/03/23 05:58:37;;;;;;;112.10;41.55;;;;;;;15.84;33.31;91811.81;4996302;28;20408;-68
2022/03/23 06:01:03;;;;;;;181.27;42.20;;;;;;;16.05;32.96;91811.13;5014143;28;20030;-68
2022/03/23 06:03:29;;;;;;;61.05;30.70;;;;;;;15.96;33.20;91813.06;5013970;28;20765;-68
2022/03/23 06:05:56;;;;;;;53.92;28.98;;;;;;;14.03;35.53;91811.44;5013981;28;20044;-67
2022/03/23 06:08:21;;;;;;;82.68;32.60;;;;;;;15.04;36.05;91804.41;5013785;28;20034;-67
2022/03/23 06:10:47;;;;;;;85.00;35.17;;;;;;;15.46;34.41;91813.53;5012419;28;20111;-67
2022/03/23 06:13:13;;;;;;;71.25;32.88;;;;;;;16.33;33.70;91816.88;5013585;28;20479;-67
2022/03/23 06:15:38;;;;;;;50.92;23.02;;;;;;;15.93;34.25;91808.31;5013613;28;20044;-67
2022/03/23 06:18:04;;;;;;;59.97;23.15;;;;;;;17.08;32.66;91814.50;5013536;28;20025;-67
2022/03/23 06:20:29;;;;;;;35.33;18.73;;;;;;;15.25;35.01;91819.53;5013508;28;20040;-67
2022/03/23 06:22:55;;;;;;;41.25;15.07;;;;;;;15.61;35.09;91810.41;5013494;28;20053;-67
2022/03/23 06:25:20;;;;;;;21.40;11.07;;;;;;;13.69;37.01;91807.50;5013510;28;20018;-67
2022/03/23 06:27:45;;;;;;;29.27;14.40;;;;;;;16.72;33.91;91818.47;5013399;28;20419;-67
2022/03/23 06:30:11;;;;;;;32.25;11.55;;;;;;;17.70;32.39;91817.22;5013321;28;20044;-67
2022/03/23 06:32:37;;;;;;;21.05;8.98;;;;;;;17.49;32.36;91821.78;5013432;28;20109;-67
2022/03/23 06:35:04;;;;;;;15.82;6.80;;;;;;;16.43;33.69;91820.00;5013108;28;20034;-67
2022/03/23 06:37:30;;;;;;;15.32;6.45;;;;;;;13.75;36.19;91816.19;5013395;28;20047;-67
2022/03/23 06:39:56;;;;;;;14.73;6.35;;;;;;;12.93;37.65;91808.44;5013320;28;20048;-67
2022/03/23 06:42:23;;;;;;;17.13;8.20;;;;;;;13.08;37.53;91806.22;5013030;28;20495;-67
2022/03/23 06:44:49;;;;;;;15.27;7.10;;;;;;;12.33;38.89;91817.44;5012877;28;20064;-67
2022/03/23 06:47:14;;;;;;;23.48;6.35;;;;;;;11.05;40.66;91821.47;5013195;28;20061;-67
2022/03/23 06:49:39;;;;;;;12.75;4.05;;;;;;;11.92;40.85;91825.41;5012777;28;20034;-67
2022/03/23 06:52:05;;;;;;;21.27;5.07;;;;;;;12.63;39.41;91820.59;5012879;28;20032;-67
2022/03/23 06:54:30;;;;;;;39.45;6.85;;;;;;;13.96;36.89;91817.25;5013106;28;20041;-68
2022/03/23 06:56:56;;;;;;;9.50;3.97;;;;;;;14.37;36.26;91810.81;5012887;28;20022;-68
2022/03/23 06:59:21;;;;;;;8.68;4.13;;;;;;;14.80;36.88;91824.34;4995069;28;20053;-68
2022/03/23 07:01:47;;;;;;;123.80;11.27;;;;;;;14.90;35.63;91818.72;5012677;28;20083;-68
2022/03/23 07:04:12;;;;;;;145.20;79.85;;;;;;;15.59;35.11;91823.34;5012645;28;20026;-68
2022/03/23 07:06:38;;;;;;;14.75;4.78;;;;;;;14.79;36.13;91819.31;5012588;28;20034;-68
2022/03/23 07:11:47;;;;;;;51.40;7.93;;;;;;;15.00;36.34;91828.34;5012416;28;20053;-68
2022/03/23 07:14:13;;;;;;;36.90;7.45;;;;;;;16.23;35.66;91814.53;5012397;28;20022;-68
2022/03/23 07:16:38;;;;;;;45.42;12.27;;;;;;;16.01;35.42;91818.25;5012450;28;20033;-68
2022/03/23 07:19:04;;;;;;;44.20;18.08;;;;;;;13.31;38.02;91815.09;5012358;28;20104;-68
2022/03/23 07:21:30;;;;;;;40.97;7.88;;;;;;;13.81;38.22;91812.28;5012136;28;20153;-68
2022/03/23 07:23:56;;;;;;;37.78;14.48;;;;;;;15.82;35.58;91808.66;5012324;28;20037;-68
2022/03/23 07:26:22;;;;;;;38.42;10.43;;;;;;;16.55;34.17;91805.88;5012336;28;20022;-68
2022/03/23 07:28:49;;;;;;;14.18;5.38;;;;;;;14.62;37.00;91812.03;5012433;28;20054;-68
2022/03/23 07:31:14;;;;;;;28.08;9.60;;;;;;;15.27;36.05;91811.97;5012289;28;20045;-68
2022/03/23 07:33:40;;;;;;;61.72;21.45;;;;;;;17.09;33.90;91816.84;5011978;28;20030;-68
2022/03/23 07:36:05;;;;;;;58.58;23.42;;;;;;;18.89;32.51;91802.00;5012051;28;20034;-67
2022/03/23 07:38:31;;;;;;;21.70;9.40;;;;;;;21.17;30.22;91806.31;5012309;28;20029;-68
2022/03/23 07:40:56;;;;;;;68.63;22.10;;;;;;;22.98;27.97;91801.00;5011872;28;20056;-69
2022/03/23 07:43:21;;;;;;;41.30;10.77;;;;;;;22.16;27.17;91816.94;5011911;28;20506;-68
2022/03/23 07:45:47;;;;;;;21.02;10.50;;;;;;;18.80;30.55;91818.28;5011850;28;20026;-69
2022/03/23 07:48:14;;;;;;;10.75;5.63;;;;;;;16.09;33.41;91817.41;5011930;28;20056;-68
2022/03/23 07:50:39;;;;;;;30.83;10.02;;;;;;;18.02;32.37;91812.19;5012044;28;20026;-68
2022/03/23 07:53:04;;;;;;;24.40;10.38;;;;;;;17.91;32.75;91811.81;5011777;28;20432;-68
2022/03/23 07:55:30;;;;;;;20.27;9.20;;;;;;;20.58;30.74;91815.31;5011764;28;20026;-68
2022/03/23 07:57:55;;;;;;;33.70;10.38;;;;;;;16.58;33.75;91812.53;5011776;28;20026;-67
2022/03/23 08:00:21;;;;;;;31.45;7.45;;;;;;;16.27;34.20;91810.91;5011545;28;20026;-68
2022/03/23 08:02:47;;;;;;;50.00;11.27;;;;;;;16.30;35.17;91810.25;5011591;28;20091;-68
2022/03/23 08:05:12;;;;;;;53.80;12.43;;;;;;;15.12;35.92;91799.03;5011798;28;20109;-68
2022/03/23 08:07:38;;;;;;;22.20;10.02;;;;;;;16.10;35.79;91803.69;5011683;28;20030;-68
2022/03/23 08:10:03;;;;;;;37.85;9.68;;;;;;;18.33;32.55;91800.94;5011299;28;20057;-69
2022/03/23 08:12:29;;;;;;;26.80;8.13;;;;;;;18.80;31.40;91798.63;5011717;28;20567;-68
2022/03/23 08:14:54;;;;;;;87.18;10.73;;;;;;;16.64;33.74;91806.63;5011414;28;20430;-68
2022/03/23 08:17:20;;;;;;;19.02;7.93;;;;;;;15.97;35.00;91803.91;5011432;28;20046;-69
2022/03/23 08:20:32;;;;;;;37.83;10.35;;;;;;;18.35;32.60;91798.69;5011294;28;20473;-69
2022/03/23 08:22:31;;;;;;;37.13;7.60;;;;;;;16.73;34.05;91782.47;5011270;28;20101;-68
2022/03/23 08:24:56;;;;;;;29.77;6.07;;;;;;;16.30;34.88;91814.84;5011351;28;20072;-69
2022/03/23 08:27:21;;;;;;;12.73;6.47;;;;;;;16.06;36.16;91810.00;5011330;28;20041;-69
2022/03/23 08:29:47;;;;;;;43.30;6.03;;;;;;;16.80;36.76;91800.75;5011202;28;20415;-69
2022/03/23 08:32:12;;;;;;;30.38;8.45;;;;;;;14.86;37.09;91798.22;5010607;28;20049;-69
2022/03/23 08:34:37;;;;;;;33.85;7.20;;;;;;;14.62;37.66;91806.66;5010977;28;20553;-69
2022/03/23 08:37:03;;;;;;;20.77;6.72;;;;;;;12.46;41.32;91813.97;5011163;28;20038;-69
2022/03/23 08:39:28;;;;;;;27.05;9.40;;;;;;;13.20;40.57;91803.06;5011012;28;20100;-69
2022/03/23 08:41:54;;;;;;;27.58;9.25;;;;;;;14.79;37.96;91805.91;5011297;28;20049;-67
2022/03/23 08:44:19;;;;;;;8.60;5.60;;;;;;;10.06;44.35;91823.25;5011500;28;20038;-69
2022/03/23 08:46:45;;;;;;;22.17;6.05;;;;;;;9.72;45.94;91829.44;5011015;28;20117;-69
2022/03/23 08:49:10;;;;;;;73.80;11.40;;;;;;;13.60;39.53;91813.91;5011042;28;20423;-69
2022/03/23 08:51:35;;;;;;;20.52;6.82;;;;;;;14.23;38.67;91818.16;5011018;28;20038;-69
2022/03/23 08:54:01;;;;;;;67.95;8.00;;;;;;;15.02;37.61;91820.78;5011078;28;20403;-70
2022/03/23 08:56:26;;;;;;;18.98;5.50;;;;;;;16.14;35.36;91826.09;5010957;28;20030;-69
2022/03/23 08:58:52;;;;;;;26.23;5.88;;;;;;;15.74;36.56;91819.38;5010944;28;20041;-69
2022/03/23 09:01:18;;;;;;;20.65;6.50;;;;;;;14.84;35.75;91809.25;5011142;28;20492;-69
2022/03/23 09:03:43;;;;;;;45.13;6.07;;;;;;;16.08;35.42;91807.78;5010978;28;20049;-68
2022/03/23 09:06:10;;;;;;;31.85;6.90;;;;;;;15.14;36.96;91802.19;5010904;28;20053;-69
2022/03/23 09:08:35;;;;;;;490.33;43.75;;;;;;;15.16;37.67;91794.63;5010926;28;20067;-69
2022/03/23 09:11:00;;;;;;;60.22;9.40;;;;;;;13.29;40.94;91793.25;5010607;28;20045;-69
2022/03/23 09:13:26;;;;;;;8.82;4.68;;;;;;;13.01;41.19;91813.88;5010773;28;20168;-70
2022/03/23 09:15:51;;;;;;;180.15;14.43;;;;;;;14.36;39.31;91802.00;5010810;28;20038;-71
2022/03/23 09:18:17;;;;;;;38.28;6.78;;;;;;;14.24;39.04;91819.75;5010851;28;20053;-70
2022/03/23 09:20:42;;;;;;;19.40;5.65;;;;;;;12.51;41.53;91815.75;5010755;28;20069;-70
2022/03/23 09:23:09;;;;;;;14.27;6.63;;;;;;;13.43;41.69;91815.34;5010778;28;20046;-70
2022/03/23 09:25:34;;;;;;;22.63;6.65;;;;;;;14.00;39.95;91822.75;5011087;28;20068;-69
2022/03/23 09:28:00;;;;;;;21.38;8.77;;;;;;;9.84;45.31;91815.78;5010714;28;20038;-69
2022/03/23 09:30:25;;;;;;;12.65;7.05;;;;;;;7.61;50.80;91818.75;5010679;28;20041;-69
2022/03/23 09:32:51;;;;;;;23.65;8.75;;;;;;;7.00;52.27;91821.44;5010695;28;20049;-69
2022/03/23 09:35:17;;;;;;;19.25;5.93;;;;;;;6.40;54.49;91830.09;5010825;28;20064;-69
2022/03/23 09:37:49;;;;;;;42.05;8.27;;;;;;;6.21;55.69;91824.50;5010502;28;20179;-69
2022/03/23 09:40:24;;;;;;;67.38;8.07;;;;;;;7.68;54.10;91813.16;5010426;28;20108;-69
2022/03/23 09:42:54;;;;;;;44.25;9.13;;;;;;;7.29;52.54;91810.31;5010637;28;20048;-69
2022/03/23 09:45:31;;;;;;;42.22;11.80;;;;;;;6.50;55.28;91804.47;5013341;28;20135;-69
2022/03/23 09:47:58;;;;;;;45.47;8.68;;;;;;;6.03;55.99;91814.41;5014063;28;20352;-69
2022/03/23 09:50:29;;;;;;;40.15;7.90;;;;;;;5.80;56.30;91812.94;5014062;28;20038;-69
2022/03/23 09:52:54;;;;;;;38.03;8.93;;;;;;;5.64;57.68;91806.78;5014072;28;20531;-69
2022/03/23 09:55:20;;;;;;;66.60;11.98;;;;;;;5.61;58.49;91809.94;5013977;28;20124;-69
2022/03/23 09:57:46;;;;;;;110.95;10.98;;;;;;;6.04;57.76;91808.84;5013865;28;20447;-69
2022/03/23 10:00:12;;;;;;;115.07;12.90;;;;;;;6.55;56.08;91803.69;5013898;28;20546;-69
2022/03/23 10:02:40;;;;;;;22.15;5.28;;;;;;;6.67;55.31;91806.88;5013823;28;20038;-69
2022/03/23 10:05:22;;;;;;;108.80;10.60;;;;;;;7.62;53.94;91803.66;5013845;28;20030;-69
2022/03/23 10:08:16;;;;;;;46.97;6.45;;;;;;;11.13;46.71;91793.38;5013774;28;20459;-69
2022/03/23 10:11:19;;;;;;;37.47;6.50;;;;;;;12.44;43.28;91794.00;5013363;28;20038;-69
2022/03/23 10:14:19;;;;;;;12.02;6.50;;;;;;;12.06;45.06;91783.56;5013522;28;20064;-69
2022/03/23 10:17:29;;;;;;;64.30;10.63;;;;;;;11.05;45.55;91784.19;5013816;28;20038;-69
2022/03/23 10:19:55;;;;;;;16.88;6.32;;;;;;;12.19;44.27;91782.78;5013450;28;20093;-70
2022/03/23 10:22:26;;;;;;;34.08;6.72;;;;;;;13.58;41.65;91774.09;5013449;28;20506;-68
2022/03/23 10:24:51;;;;;;;16.38;6.00;;;;;;;12.86;42.39;91774.94;5013492;28;20034;-68
2022/03/23 10:27:22;;;;;;;164.73;16.73;;;;;;;10.79;44.53;91767.03;5013373;28;20515;-69
2022/03/23 10:29:54;;;;;;;19.75;5.28;;;;;;;13.53;41.51;91770.75;5013204;28;20038;-69
2022/03/23 10:32:21;;;;;;;26.20;7.03;;;;;;;13.64;40.18;91751.47;5013243;28;20076;-69
2022/03/23 10:34:49;;;;;;;41.20;9.02;;;;;;;14.55;38.70;91766.19;5013034;28;20042;-67
2022/03/23 10:37:22;;;;;;;24.77;5.10;;;;;;;16.13;36.46;91762.00;5013138;28;20104;-68
2022/03/23 10:39:48;;;;;;;26.58;5.25;;;;;;;14.81;38.35;91752.81;5013047;28;20041;-68
2022/03/23 10:42:18;;;;;;;20.88;5.03;;;;;;;16.27;36.35;91762.59;5013255;28;20400;-68
2022/03/23 10:44:46;;;;;;;20.33;4.65;;;;;;;15.55;36.89;91760.69;5013153;28;20068;-69
2022/03/23 10:47:31;;;;;;;17.73;5.47;;;;;;;14.83;37.80;91755.97;5013097;28;20026;-69
2022/03/23 10:50:04;;;;;;;33.88;6.10;;;;;;;14.25;38.71;91749.84;5012741;28;20045;-69
2022/03/23 10:52:32;;;;;;;36.20;8.18;;;;;;;13.71;39.96;91754.50;5012906;28;20034;-68
2022/03/23 10:55:03;;;;;;;19.55;5.30;;;;;;;15.21;37.22;91746.22;5012779;28;20036;-69
2022/03/23 10:57:56;;;;;;;24.65;5.20;;;;;;;14.54;37.54;91746.66;5011378;28;20041;-69
2022/03/23 11:00:29;;;;;;;27.02;4.90;;;;;;;15.59;36.44;91745.56;5012835;28;20030;-69
2022/03/23 11:02:55;;;;;;;26.00;5.55;;;;;;;16.21;35.76;91753.13;5012742;28;20388;-69
2022/03/23 11:05:34;;;;;;;25.40;7.70;;;;;;;16.25;35.28;91755.94;5012630;28;20046;-69
2022/03/23 11:08:07;;;;;;;44.35;6.97;;;;;;;12.76;38.59;91753.00;5012512;28;20104;-69
2022/03/23 11:16:09;;;;;;;32.30;7.13;;;;;;;15.64;36.69;91744.63;5012722;28;20423;-69
2022/03/23 11:18:35;;;;;;;22.05;5.60;;;;;;;14.80;37.62;91730.59;5012339;28;20061;-68
2022/03/23 11:21:01;;;;;;;24.75;6.30;;;;;;;15.75;37.37;91735.91;5012399;28;20056;-69
2022/03/23 11:23:30;;;;;;;76.47;10.32;;;;;;;16.53;34.89;91729.41;5012356;28;20419;-69
2022/03/23 11:26:00;;;;;;;19.98;4.78;;;;;;;13.60;39.09;91734.47;4994443;28;20034;-69
2022/03/23 11:28:28;;;;;;;55.08;7.05;;;;;;;11.16;41.25;91728.09;5012265;28;20034;-68
2022/03/23 11:30:55;;;;;;;29.63;5.47;;;;;;;13.02;40.07;91719.31;5012119;28;20025;-69
2022/03/23 11:33:23;;;;;;;19.00;6.68;;;;;;;13.56;38.23;91732.69;5012056;28;20030;-69
2022/03/23 11:35:50;;;;;;;52.80;18.45;;;;;;;15.01;36.12;91730.00;5011945;28;20022;-69
2022/03/23 11:38:25;;;;;;;16.23;6.07;;;;;;;15.43;34.86;91723.00;5012041;28;20033;-69
2022/03/23 11:40:52;;;;;;;18.70;5.65;;;;;;;17.53;32.04;91723.19;5012002;28;20071;-69
2022/03/23 11:43:23;;;;;;;17.67;5.53;;;;;;;17.50;31.88;91715.75;4994422;28;20458;-69